sensor_id;sensor_type;location;lat;lon;timestamp;temperature;humidity
68274;SHT30;55104;47.356;19.448;2023-12-20T00:01:33;-1.16;99.99
68274;SHT30;55104;47.356;19.448;2023-12-20T00:04:35;-1.21;99.99
68274;SHT30;55104;47.356;19.448;2023-12-20T00:07:37;-1.21;99.99
68274;SHT30;55104;47.356;19.448;2023-12-20T00:10:40;-1.29;99.99
68274;SHT30;55104;47.356;19.448;2023-12-20T00:13:42;-1.27;99.99
68274;SHT30;55104;47.356;19.448;2023-12-20T00:16:44;-1.27;99.99
68274;SHT30;55104;47.356;19.448;2023-12-20T00:19:46;-1.21;99.99
68274;SHT30;55104;47.356;19.448;2023-12-20T00:22:49;-1.17;99.99
68274;SHT30;55104;47.356;19.448;2023-12-20T00:25:51;-1.34;99.99
68274;SHT30;55104;47.356;19.448;2023-12-20T00:28:53;-1.33;99.99
68274;SHT30;55104;47.356;19.448;2023-12-20T00:31:56;-1.33;99.99
68274;SHT30;55104;47.356;19.448;2023-12-20T00:34:58;-1.27;99.99
68274;SHT30;55104;47.356;19.448;2023-12-20T00:38:00;-1.26;99.99
68274;SHT30;55104;47.356;19.448;2023-12-20T00:41:03;-1.23;99.99
68274;SHT30;55104;47.356;19.448;2023-12-20T00:44:05;-1.30;99.99
68274;SHT30;55104;47.356;19.448;2023-12-20T00:47:08;-1.26;99.99
68274;SHT30;55104;47.356;19.448;2023-12-20T00:50:10;-1.29;99.99
68274;SHT30;55104;47.356;19.448;2023-12-20T00:53:12;-1.26;99.99
68274;SHT30;55104;47.356;19.448;2023-12-20T00:56:14;-1.39;99.99
68274;SHT30;55104;47.356;19.448;2023-12-20T00:59:17;-1.39;99.99
68274;SHT30;55104;47.356;19.448;2023-12-20T01:02:20;-1.34;99.99
68274;SHT30;55104;47.356;19.448;2023-12-20T01:05:22;-1.37;99.99
68274;SHT30;55104;47.356;19.448;2023-12-20T01:08:25;-1.29;99.99
68274;SHT30;55104;47.356;19.448;2023-12-20T01:11:27;-1.26;99.99
68274;SHT30;55104;47.356;19.448;2023-12-20T01:14:30;-1.23;99.99
68274;SHT30;55104;47.356;19.448;2023-12-20T01:17:32;-1.20;99.99
68274;SHT30;55104;47.356;19.448;2023-12-20T01:20:34;-1.21;99.99
68274;SHT30;55104;47.356;19.448;2023-12-20T01:23:37;-1.24;99.99
68274;SHT30;55104;47.356;19.448;2023-12-20T01:26:39;-1.21;99.99
68274;SHT30;55104;47.356;19.448;2023-12-20T01:29:41;-1.19;99.99
68274;SHT30;55104;47.356;19.448;2023-12-20T01:32:43;-1.17;99.99
68274;SHT30;55104;47.356;19.448;2023-12-20T01:35:45;-1.21;99.99
68274;SHT30;55104;47.356;19.448;2023-12-20T01:38:48;-1.19;99.99
68274;SHT30;55104;47.356;19.448;2023-12-20T01:41:50;-1.26;99.99
68274;SHT30;55104;47.356;19.448;2023-12-20T01:44:52;-1.33;99.99
68274;SHT30;55104;47.356;19.448;2023-12-20T01:47:57;-1.36;99.99
68274;SHT30;55104;47.356;19.448;2023-12-20T01:51:00;-1.33;99.99
68274;SHT30;55104;47.356;19.448;2023-12-20T01:54:03;-1.32;99.99
68274;SHT30;55104;47.356;19.448;2023-12-20T01:57:06;-1.33;99.99
68274;SHT30;55104;47.356;19.448;2023-12-20T02:00:10;-1.26;99.99
68274;SHT30;55104;47.356;19.448;2023-12-20T02:03:13;-1.26;99.99
68274;SHT30;55104;47.356;19.448;2023-12-20T02:06:16;-1.23;99.99
68274;SHT30;55104;47.356;19.448;2023-12-20T02:09:19;-1.29;99.99
68274;SHT30;55104;47.356;19.448;2023-12-20T02:12:21;-1.32;99.99
68274;SHT30;55104;47.356;19.448;2023-12-20T02:15:25;-1.41;99.99
68274;SHT30;55104;47.356;19.448;2023-12-20T02:18:27;-1.37;99.99
68274;SHT30;55104;47.356;19.448;2023-12-20T02:21:33;-1.39;99.99
68274;SHT30;55104;47.356;19.448;2023-12-20T02:24:37;-1.43;99.99
68274;SHT30;55104;47.356;19.448;2023-12-20T02:27:40;-1.39;99.99
68274;SHT30;55104;47.356;19.448;2023-12-20T02:30:42;-1.36;99.99
68274;SHT30;55104;47.356;19.448;2023-12-20T02:33:45;-1.32;99.99
68274;SHT30;55104;47.356;19.448;2023-12-20T02:36:47;-1.26;99.99
68274;SHT30;55104;47.356;19.448;2023-12-20T02:39:49;-1.33;99.99
68274;SHT30;55104;47.356;19.448;2023-12-20T02:42:52;-1.32;99.99
68274;SHT30;55104;47.356;19.448;2023-12-20T02:45:54;-1.34;99.99
68274;SHT30;55104;47.356;19.448;2023-12-20T02:48:56;-1.29;99.99
68274;SHT30;55104;47.356;19.448;2023-12-20T02:51:59;-1.30;99.99
68274;SHT30;55104;47.356;19.448;2023-12-20T02:55:01;-1.36;99.99
68274;SHT30;55104;47.356;19.448;2023-12-20T02:58:03;-1.46;99.99
68274;SHT30;55104;47.356;19.448;2023-12-20T03:01:05;-1.48;99.99
68274;SHT30;55104;47.356;19.448;2023-12-20T03:04:08;-1.41;99.99
68274;SHT30;55104;47.356;19.448;2023-12-20T03:07:11;-1.41;99.99
68274;SHT30;55104;47.356;19.448;2023-12-20T03:10:14;-1.37;99.99
68274;SHT30;55104;47.356;19.448;2023-12-20T03:13:27;-1.30;99.99
68274;SHT30;55104;47.356;19.448;2023-12-20T03:16:29;-1.21;99.99
68274;SHT30;55104;47.356;19.448;2023-12-20T03:19:34;-1.36;99.99
68274;SHT30;55104;47.356;19.448;2023-12-20T03:22:36;-1.33;99.99
68274;SHT30;55104;47.356;19.448;2023-12-20T03:25:39;-1.36;99.99
68274;SHT30;55104;47.356;19.448;2023-12-20T03:28:41;-1.34;99.99
68274;SHT30;55104;47.356;19.448;2023-12-20T03:31:43;-1.41;99.99
68274;SHT30;55104;47.356;19.448;2023-12-20T03:34:46;-1.52;99.99
68274;SHT30;55104;47.356;19.448;2023-12-20T03:37:48;-1.51;99.99
68274;SHT30;55104;47.356;19.448;2023-12-20T03:40:50;-1.46;99.99
68274;SHT30;55104;47.356;19.448;2023-12-20T03:43:53;-1.48;99.99
68274;SHT30;55104;47.356;19.448;2023-12-20T03:46:55;-1.55;99.99
68274;SHT30;55104;47.356;19.448;2023-12-20T03:49:57;-1.62;99.99
68274;SHT30;55104;47.356;19.448;2023-12-20T03:53:00;-1.70;99.99
68274;SHT30;55104;47.356;19.448;2023-12-20T03:56:03;-1.79;99.99
68274;SHT30;55104;47.356;19.448;2023-12-20T03:59:05;-1.79;99.99
68274;SHT30;55104;47.356;19.448;2023-12-20T04:02:08;-1.72;99.99
68274;SHT30;55104;47.356;19.448;2023-12-20T04:05:10;-1.74;99.99
68274;SHT30;55104;47.356;19.448;2023-12-20T04:08:12;-1.83;99.99
68274;SHT30;55104;47.356;19.448;2023-12-20T04:11:14;-1.82;99.99
68274;SHT30;55104;47.356;19.448;2023-12-20T04:14:17;-1.79;99.99
68274;SHT30;55104;47.356;19.448;2023-12-20T04:17:20;-1.78;99.99
68274;SHT30;55104;47.356;19.448;2023-12-20T04:20:22;-1.72;99.99
68274;SHT30;55104;47.356;19.448;2023-12-20T04:23:24;-1.81;99.99
68274;SHT30;55104;47.356;19.448;2023-12-20T04:26:26;-1.75;99.99
68274;SHT30;55104;47.356;19.448;2023-12-20T04:29:29;-1.64;99.99
68274;SHT30;55104;47.356;19.448;2023-12-20T04:32:31;-1.72;99.99
68274;SHT30;55104;47.356;19.448;2023-12-20T04:35:33;-1.70;99.99
68274;SHT30;55104;47.356;19.448;2023-12-20T04:38:35;-1.62;99.99
68274;SHT30;55104;47.356;19.448;2023-12-20T04:41:37;-1.65;99.99
68274;SHT30;55104;47.356;19.448;2023-12-20T04:44:39;-1.62;99.99
68274;SHT30;55104;47.356;19.448;2023-12-20T04:47:42;-1.68;99.99
68274;SHT30;55104;47.356;19.448;2023-12-20T04:50:45;-1.61;99.99
68274;SHT30;55104;47.356;19.448;2023-12-20T04:53:47;-1.57;99.99
68274;SHT30;55104;47.356;19.448;2023-12-20T04:56:49;-1.48;99.99
68274;SHT30;55104;47.356;19.448;2023-12-20T04:59:52;-1.60;99.99
68274;SHT30;55104;47.356;19.448;2023-12-20T05:02:54;-1.46;99.99
68274;SHT30;55104;47.356;19.448;2023-12-20T05:05:56;-1.51;99.99
68274;SHT30;55104;47.356;19.448;2023-12-20T05:08:58;-1.52;99.99
68274;SHT30;55104;47.356;19.448;2023-12-20T05:12:01;-1.51;99.99
68274;SHT30;55104;47.356;19.448;2023-12-20T05:15:05;-1.46;99.99
68274;SHT30;55104;47.356;19.448;2023-12-20T05:18:08;-1.52;99.99
68274;SHT30;55104;47.356;19.448;2023-12-20T05:21:10;-1.54;99.99
68274;SHT30;55104;47.356;19.448;2023-12-20T05:24:12;-1.46;99.99
68274;SHT30;55104;47.356;19.448;2023-12-20T05:27:15;-1.39;99.99
68274;SHT30;55104;47.356;19.448;2023-12-20T05:30:17;-1.30;99.99
68274;SHT30;55104;47.356;19.448;2023-12-20T05:33:20;-1.36;99.99
68274;SHT30;55104;47.356;19.448;2023-12-20T05:36:22;-1.37;99.99
68274;SHT30;55104;47.356;19.448;2023-12-20T05:39:24;-1.29;99.99
68274;SHT30;55104;47.356;19.448;2023-12-20T05:42:27;-1.33;99.99
68274;SHT30;55104;47.356;19.448;2023-12-20T05:45:30;-1.48;99.99
68274;SHT30;55104;47.356;19.448;2023-12-20T05:48:32;-1.40;99.99
68274;SHT30;55104;47.356;19.448;2023-12-20T05:51:34;-1.30;99.99
68274;SHT30;55104;47.356;19.448;2023-12-20T05:54:36;-1.37;99.99
68274;SHT30;55104;47.356;19.448;2023-12-20T05:57:38;-1.47;99.99
68274;SHT30;55104;47.356;19.448;2023-12-20T06:00:41;-1.46;99.99
68274;SHT30;55104;47.356;19.448;2023-12-20T06:03:43;-1.48;99.99
68274;SHT30;55104;47.356;19.448;2023-12-20T06:06:46;-1.60;99.99
68274;SHT30;55104;47.356;19.448;2023-12-20T06:09:48;-1.52;99.99
68274;SHT30;55104;47.356;19.448;2023-12-20T06:12:50;-1.48;99.99
68274;SHT30;55104;47.356;19.448;2023-12-20T06:15:56;-1.46;99.99
68274;SHT30;55104;47.356;19.448;2023-12-20T06:18:58;-1.50;99.99
68274;SHT30;55104;47.356;19.448;2023-12-20T06:22:01;-1.54;99.99
68274;SHT30;55104;47.356;19.448;2023-12-20T06:25:04;-1.54;99.99
68274;SHT30;55104;47.356;19.448;2023-12-20T06:28:07;-1.48;99.99
68274;SHT30;55104;47.356;19.448;2023-12-20T06:31:10;-1.46;99.99
68274;SHT30;55104;47.356;19.448;2023-12-20T06:34:12;-1.55;99.99
68274;SHT30;55104;47.356;19.448;2023-12-20T06:37:15;-1.51;99.99
68274;SHT30;55104;47.356;19.448;2023-12-20T06:40:17;-1.50;99.99
68274;SHT30;55104;47.356;19.448;2023-12-20T06:43:20;-1.46;99.99
68274;SHT30;55104;47.356;19.448;2023-12-20T06:46:43;-1.34;99.99
68274;SHT30;55104;47.356;19.448;2023-12-20T06:49:45;-1.30;99.99
68274;SHT30;55104;47.356;19.448;2023-12-20T06:52:47;-1.29;99.99
68274;SHT30;55104;47.356;19.448;2023-12-20T06:55:50;-1.27;99.99
68274;SHT30;55104;47.356;19.448;2023-12-20T06:58:52;-1.26;99.99
68274;SHT30;55104;47.356;19.448;2023-12-20T07:01:54;-1.30;99.99
68274;SHT30;55104;47.356;19.448;2023-12-20T07:04:57;-1.33;99.99
68274;SHT30;55104;47.356;19.448;2023-12-20T07:07:59;-1.30;99.99
68274;SHT30;55104;47.356;19.448;2023-12-20T07:11:01;-1.29;99.99
68274;SHT30;55104;47.356;19.448;2023-12-20T07:14:04;-1.27;99.99
68274;SHT30;55104;47.356;19.448;2023-12-20T07:17:06;-1.34;99.99
68274;SHT30;55104;47.356;19.448;2023-12-20T07:20:13;-1.32;99.99
68274;SHT30;55104;47.356;19.448;2023-12-20T07:23:15;-1.40;99.99
68274;SHT30;55104;47.356;19.448;2023-12-20T07:26:17;-1.43;99.99
68274;SHT30;55104;47.356;19.448;2023-12-20T07:29:19;-1.39;99.99
68274;SHT30;55104;47.356;19.448;2023-12-20T07:32:21;-1.40;99.99
68274;SHT30;55104;47.356;19.448;2023-12-20T07:35:24;-1.47;99.99
68274;SHT30;55104;47.356;19.448;2023-12-20T07:38:27;-1.52;99.99
68274;SHT30;55104;47.356;19.448;2023-12-20T07:41:30;-1.51;99.99
68274;SHT30;55104;47.356;19.448;2023-12-20T07:44:32;-1.40;99.99
68274;SHT30;55104;47.356;19.448;2023-12-20T07:47:34;-1.39;99.99
68274;SHT30;55104;47.356;19.448;2023-12-20T07:50:36;-1.40;99.99
68274;SHT30;55104;47.356;19.448;2023-12-20T07:53:40;-1.29;99.99
68274;SHT30;55104;47.356;19.448;2023-12-20T07:56:42;-1.32;99.99
68274;SHT30;55104;47.356;19.448;2023-12-20T07:59:45;-1.26;99.99
68274;SHT30;55104;47.356;19.448;2023-12-20T08:02:47;-1.24;99.99
68274;SHT30;55104;47.356;19.448;2023-12-20T08:05:50;-1.17;99.99
68274;SHT30;55104;47.356;19.448;2023-12-20T08:08:52;-1.10;99.99
68274;SHT30;55104;47.356;19.448;2023-12-20T08:12:03;-1.10;99.99
68274;SHT30;55104;47.356;19.448;2023-12-20T08:15:06;-1.07;99.99
68274;SHT30;55104;47.356;19.448;2023-12-20T08:18:08;-1.10;99.99
68274;SHT30;55104;47.356;19.448;2023-12-20T08:21:10;-1.02;99.99
68274;SHT30;55104;47.356;19.448;2023-12-20T08:24:13;-0.92;99.99
68274;SHT30;55104;47.356;19.448;2023-12-20T08:27:15;-0.86;99.99
68274;SHT30;55104;47.356;19.448;2023-12-20T08:30:18;-1.02;99.99
68274;SHT30;55104;47.356;19.448;2023-12-20T08:33:23;-0.95;99.99
68274;SHT30;55104;47.356;19.448;2023-12-20T08:36:25;-0.82;99.99
68274;SHT30;55104;47.356;19.448;2023-12-20T08:39:28;-0.81;99.99
68274;SHT30;55104;47.356;19.448;2023-12-20T08:42:33;-0.74;99.99
68274;SHT30;55104;47.356;19.448;2023-12-20T08:45:36;-0.75;99.99
68274;SHT30;55104;47.356;19.448;2023-12-20T08:48:38;-0.72;99.99
68274;SHT30;55104;47.356;19.448;2023-12-20T08:51:41;-0.84;99.99
68274;SHT30;55104;47.356;19.448;2023-12-20T08:54:44;-0.67;99.99
68274;SHT30;55104;47.356;19.448;2023-12-20T08:57:46;-0.56;99.99
68274;SHT30;55104;47.356;19.448;2023-12-20T09:00:50;-0.54;99.99
68274;SHT30;55104;47.356;19.448;2023-12-20T09:03:52;-0.53;99.99
68274;SHT30;55104;47.356;19.448;2023-12-20T09:06:54;-0.53;99.99
68274;SHT30;55104;47.356;19.448;2023-12-20T09:09:57;-0.53;99.99
68274;SHT30;55104;47.356;19.448;2023-12-20T09:12:59;-0.41;99.99
68274;SHT30;55104;47.356;19.448;2023-12-20T09:16:03;-0.43;99.99
68274;SHT30;55104;47.356;19.448;2023-12-20T09:19:05;-0.65;99.99
68274;SHT30;55104;47.356;19.448;2023-12-20T09:22:07;-0.58;99.99
68274;SHT30;55104;47.356;19.448;2023-12-20T09:25:10;-0.68;99.99
68274;SHT30;55104;47.356;19.448;2023-12-20T09:28:13;-0.67;99.99
68274;SHT30;55104;47.356;19.448;2023-12-20T09:31:15;-0.77;99.99
68274;SHT30;55104;47.356;19.448;2023-12-20T09:34:18;-0.75;99.99
68274;SHT30;55104;47.356;19.448;2023-12-20T09:37:20;-0.75;99.99
68274;SHT30;55104;47.356;19.448;2023-12-20T09:40:26;-0.79;99.99
68274;SHT30;55104;47.356;19.448;2023-12-20T09:43:29;-0.86;99.99
68274;SHT30;55104;47.356;19.448;2023-12-20T09:46:32;-0.93;99.99
68274;SHT30;55104;47.356;19.448;2023-12-20T09:49:36;-0.82;99.99
68274;SHT30;55104;47.356;19.448;2023-12-20T09:52:39;-0.60;99.99
68274;SHT30;55104;47.356;19.448;2023-12-20T09:55:42;-0.49;99.99
68274;SHT30;55104;47.356;19.448;2023-12-20T09:58:44;-0.58;99.99
68274;SHT30;55104;47.356;19.448;2023-12-20T10:01:47;-0.53;99.99
68274;SHT30;55104;47.356;19.448;2023-12-20T10:04:50;-0.49;99.99
68274;SHT30;55104;47.356;19.448;2023-12-20T10:07:52;-0.47;99.99
68274;SHT30;55104;47.356;19.448;2023-12-20T10:10:55;-0.37;99.99
68274;SHT30;55104;47.356;19.448;2023-12-20T10:14:00;-0.24;99.99
68274;SHT30;55104;47.356;19.448;2023-12-20T10:17:06;-0.22;99.99
68274;SHT30;55104;47.356;19.448;2023-12-20T10:20:09;-0.27;99.74
68274;SHT30;55104;47.356;19.448;2023-12-20T10:23:12;-0.16;99.99
68274;SHT30;55104;47.356;19.448;2023-12-20T10:26:23;-0.02;99.99
68274;SHT30;55104;47.356;19.448;2023-12-20T10:29:25;0.06;99.78
68274;SHT30;55104;47.356;19.448;2023-12-20T10:32:27;0.09;99.91
68274;SHT30;55104;47.356;19.448;2023-12-20T10:35:29;0.08;99.44
68274;SHT30;55104;47.356;19.448;2023-12-20T10:38:31;0.18;99.39
68274;SHT30;55104;47.356;19.448;2023-12-20T10:41:35;0.16;99.46
68274;SHT30;55104;47.356;19.448;2023-12-20T10:44:43;0.08;99.99
68274;SHT30;55104;47.356;19.448;2023-12-20T10:47:46;0.06;99.99
68274;SHT30;55104;47.356;19.448;2023-12-20T10:50:50;0.32;99.99
68274;SHT30;55104;47.356;19.448;2023-12-20T10:53:53;0.41;99.66
68274;SHT30;55104;47.356;19.448;2023-12-20T10:56:57;0.28;99.00
68274;SHT30;55104;47.356;19.448;2023-12-20T11:00:01;0.59;99.60
68274;SHT30;55104;47.356;19.448;2023-12-20T11:03:09;0.69;99.23
68274;SHT30;55104;47.356;19.448;2023-12-20T11:06:36;0.80;98.69
68274;SHT30;55104;47.356;19.448;2023-12-20T11:09:48;0.92;98.68
68274;SHT30;55104;47.356;19.448;2023-12-20T11:13:01;1.14;98.36
68274;SHT30;55104;47.356;19.448;2023-12-20T11:16:05;1.08;97.65
68274;SHT30;55104;47.356;19.448;2023-12-20T11:19:07;1.08;98.03
68274;SHT30;55104;47.356;19.448;2023-12-20T11:22:10;1.05;98.44
68274;SHT30;55104;47.356;19.448;2023-12-20T11:25:13;0.90;98.25
68274;SHT30;55104;47.356;19.448;2023-12-20T11:28:15;0.81;99.02
68274;SHT30;55104;47.356;19.448;2023-12-20T11:31:20;0.91;99.28
68274;SHT30;55104;47.356;19.448;2023-12-20T11:34:27;0.81;99.13
68274;SHT30;55104;47.356;19.448;2023-12-20T11:37:30;0.80;99.71
68274;SHT30;55104;47.356;19.448;2023-12-20T11:40:36;0.99;99.24
68274;SHT30;55104;47.356;19.448;2023-12-20T11:43:39;0.87;99.99
68274;SHT30;55104;47.356;19.448;2023-12-20T11:46:41;0.97;99.99
68274;SHT30;55104;47.356;19.448;2023-12-20T11:49:44;0.88;99.57
68274;SHT30;55104;47.356;19.448;2023-12-20T11:52:46;0.99;99.91
68274;SHT30;55104;47.356;19.448;2023-12-20T11:55:49;1.02;99.71
68274;SHT30;55104;47.356;19.448;2023-12-20T11:58:51;1.14;99.34
68274;SHT30;55104;47.356;19.448;2023-12-20T12:01:54;1.25;99.24
68274;SHT30;55104;47.356;19.448;2023-12-20T12:05:03;1.32;99.20
68274;SHT30;55104;47.356;19.448;2023-12-20T12:08:07;1.29;98.71
68274;SHT30;55104;47.356;19.448;2023-12-20T12:11:10;1.33;98.88
68274;SHT30;55104;47.356;19.448;2023-12-20T12:14:13;1.38;98.71
68274;SHT30;55104;47.356;19.448;2023-12-20T12:17:17;1.28;99.11
68274;SHT30;55104;47.356;19.448;2023-12-20T12:20:20;1.16;98.71
68274;SHT30;55104;47.356;19.448;2023-12-20T12:23:23;1.11;99.24
68274;SHT30;55104;47.356;19.448;2023-12-20T12:26:26;1.07;99.45
68274;SHT30;55104;47.356;19.448;2023-12-20T12:29:31;1.14;99.65
68274;SHT30;55104;47.356;19.448;2023-12-20T12:32:33;1.14;99.99
68274;SHT30;55104;47.356;19.448;2023-12-20T12:35:36;1.33;99.99
68274;SHT30;55104;47.356;19.448;2023-12-20T12:38:41;1.31;99.70
68274;SHT30;55104;47.356;19.448;2023-12-20T12:41:43;1.31;99.62
68274;SHT30;55104;47.356;19.448;2023-12-20T12:44:46;1.31;99.81
68274;SHT30;55104;47.356;19.448;2023-12-20T12:47:48;1.33;99.99
68274;SHT30;55104;47.356;19.448;2023-12-20T12:50:51;1.24;99.99
68274;SHT30;55104;47.356;19.448;2023-12-20T12:53:55;1.31;99.99
68274;SHT30;55104;47.356;19.448;2023-12-20T12:56:57;1.35;99.99
68274;SHT30;55104;47.356;19.448;2023-12-20T13:00:00;1.36;99.99
68274;SHT30;55104;47.356;19.448;2023-12-20T13:03:02;1.42;99.99
68274;SHT30;55104;47.356;19.448;2023-12-20T13:06:05;1.35;99.99
68274;SHT30;55104;47.356;19.448;2023-12-20T13:09:08;1.26;99.96
68274;SHT30;55104;47.356;19.448;2023-12-20T13:12:12;1.24;99.99
68274;SHT30;55104;47.356;19.448;2023-12-20T13:15:14;1.14;99.99
68274;SHT30;55104;47.356;19.448;2023-12-20T13:18:17;1.14;99.99
68274;SHT30;55104;47.356;19.448;2023-12-20T13:21:21;1.12;99.99
68274;SHT30;55104;47.356;19.448;2023-12-20T13:24:23;1.08;99.99
68274;SHT30;55104;47.356;19.448;2023-12-20T13:27:25;1.19;99.99
68274;SHT30;55104;47.356;19.448;2023-12-20T13:30:27;1.19;99.99
68274;SHT30;55104;47.356;19.448;2023-12-20T13:33:30;1.22;99.99
68274;SHT30;55104;47.356;19.448;2023-12-20T13:36:32;1.21;99.99
68274;SHT30;55104;47.356;19.448;2023-12-20T13:39:35;1.26;99.99
68274;SHT30;55104;47.356;19.448;2023-12-20T13:42:37;1.26;99.99
68274;SHT30;55104;47.356;19.448;2023-12-20T13:45:39;1.21;99.99
68274;SHT30;55104;47.356;19.448;2023-12-20T13:48:42;1.22;99.99
68274;SHT30;55104;47.356;19.448;2023-12-20T13:51:45;1.16;99.99
68274;SHT30;55104;47.356;19.448;2023-12-20T13:54:49;1.24;99.99
68274;SHT30;55104;47.356;19.448;2023-12-20T13:57:51;1.19;99.99
68274;SHT30;55104;47.356;19.448;2023-12-20T14:00:57;1.15;99.99
68274;SHT30;55104;47.356;19.448;2023-12-20T14:04:00;1.14;99.99
68274;SHT30;55104;47.356;19.448;2023-12-20T14:07:03;1.12;99.99
68274;SHT30;55104;47.356;19.448;2023-12-20T14:10:06;1.18;99.99
68274;SHT30;55104;47.356;19.448;2023-12-20T14:13:08;1.21;99.99
68274;SHT30;55104;47.356;19.448;2023-12-20T14:16:11;1.15;99.99
68274;SHT30;55104;47.356;19.448;2023-12-20T14:19:13;1.09;99.99
68274;SHT30;55104;47.356;19.448;2023-12-20T14:22:15;1.01;99.99
68274;SHT30;55104;47.356;19.448;2023-12-20T14:25:19;1.04;99.99
68274;SHT30;55104;47.356;19.448;2023-12-20T14:28:21;0.95;99.99
68274;SHT30;55104;47.356;19.448;2023-12-20T14:31:23;0.95;99.99
68274;SHT30;55104;47.356;19.448;2023-12-20T14:34:27;0.92;99.99
68274;SHT30;55104;47.356;19.448;2023-12-20T14:37:29;0.87;99.99
68274;SHT30;55104;47.356;19.448;2023-12-20T14:40:32;0.83;99.99
68274;SHT30;55104;47.356;19.448;2023-12-20T14:43:34;0.76;99.99
68274;SHT30;55104;47.356;19.448;2023-12-20T14:46:36;0.70;99.99
68274;SHT30;55104;47.356;19.448;2023-12-20T14:49:43;0.66;99.99
68274;SHT30;55104;47.356;19.448;2023-12-20T14:52:45;0.56;99.99
68274;SHT30;55104;47.356;19.448;2023-12-20T14:55:47;0.56;99.99
68274;SHT30;55104;47.356;19.448;2023-12-20T14:58:50;0.61;99.99
68274;SHT30;55104;47.356;19.448;2023-12-20T15:01:52;0.53;99.99
68274;SHT30;55104;47.356;19.448;2023-12-20T15:04:55;0.53;99.99
68274;SHT30;55104;47.356;19.448;2023-12-20T15:07:57;0.50;99.99
68274;SHT30;55104;47.356;19.448;2023-12-20T15:11:00;0.56;99.99
68274;SHT30;55104;47.356;19.448;2023-12-20T15:14:03;0.54;99.99
68274;SHT30;55104;47.356;19.448;2023-12-20T15:17:06;0.57;99.99
68274;SHT30;55104;47.356;19.448;2023-12-20T15:20:08;0.53;99.99
68274;SHT30;55104;47.356;19.448;2023-12-20T15:23:12;0.49;99.99
68274;SHT30;55104;47.356;19.448;2023-12-20T15:26:14;0.54;99.99
68274;SHT30;55104;47.356;19.448;2023-12-20T15:29:17;0.60;99.99
68274;SHT30;55104;47.356;19.448;2023-12-20T15:32:19;0.61;99.99
68274;SHT30;55104;47.356;19.448;2023-12-20T15:35:21;0.61;99.99
68274;SHT30;55104;47.356;19.448;2023-12-20T15:38:23;0.60;99.99
68274;SHT30;55104;47.356;19.448;2023-12-20T15:41:25;0.56;99.99
68274;SHT30;55104;47.356;19.448;2023-12-20T15:44:28;0.59;99.99
68274;SHT30;55104;47.356;19.448;2023-12-20T15:47:30;0.67;99.99
68274;SHT30;55104;47.356;19.448;2023-12-20T15:50:32;0.67;99.99
68274;SHT30;55104;47.356;19.448;2023-12-20T15:53:35;0.85;99.99
68274;SHT30;55104;47.356;19.448;2023-12-20T15:56:38;0.88;99.99
68274;SHT30;55104;47.356;19.448;2023-12-20T15:59:43;0.92;99.99
68274;SHT30;55104;47.356;19.448;2023-12-20T16:02:45;1.18;99.99
68274;SHT30;55104;47.356;19.448;2023-12-20T16:05:47;1.16;99.99
68274;SHT30;55104;47.356;19.448;2023-12-20T16:08:49;1.25;99.99
68274;SHT30;55104;47.356;19.448;2023-12-20T16:11:51;1.46;99.99
68274;SHT30;55104;47.356;19.448;2023-12-20T16:14:53;1.81;99.99
68274;SHT30;55104;47.356;19.448;2023-12-20T16:17:56;2.04;99.99
68274;SHT30;55104;47.356;19.448;2023-12-20T16:20:58;2.24;99.99
68274;SHT30;55104;47.356;19.448;2023-12-20T16:24:03;2.49;99.99
68274;SHT30;55104;47.356;19.448;2023-12-20T16:27:05;2.56;99.99
68274;SHT30;55104;47.356;19.448;2023-12-20T16:30:08;2.91;99.99
68274;SHT30;55104;47.356;19.448;2023-12-20T16:33:11;3.00;99.99
68274;SHT30;55104;47.356;19.448;2023-12-20T16:36:14;3.00;99.99
68274;SHT30;55104;47.356;19.448;2023-12-20T16:39:16;3.04;99.99
68274;SHT30;55104;47.356;19.448;2023-12-20T16:42:21;3.05;99.99
68274;SHT30;55104;47.356;19.448;2023-12-20T16:45:24;3.18;99.99
68274;SHT30;55104;47.356;19.448;2023-12-20T16:48:26;3.30;99.39
68274;SHT30;55104;47.356;19.448;2023-12-20T16:51:28;3.35;99.07
68274;SHT30;55104;47.356;19.448;2023-12-20T16:54:31;3.38;98.81
68274;SHT30;55104;47.356;19.448;2023-12-20T16:57:33;3.39;98.77
68274;SHT30;55104;47.356;19.448;2023-12-20T17:00:36;3.36;98.79
68274;SHT30;55104;47.356;19.448;2023-12-20T17:03:38;3.30;98.91
68274;SHT30;55104;47.356;19.448;2023-12-20T17:06:40;3.19;99.10
68274;SHT30;55104;47.356;19.448;2023-12-20T17:09:43;3.08;99.29
68274;SHT30;55104;47.356;19.448;2023-12-20T17:12:46;2.98;99.29
68274;SHT30;55104;47.356;19.448;2023-12-20T17:15:49;2.91;99.80
68274;SHT30;55104;47.356;19.448;2023-12-20T17:18:51;2.91;99.92
68274;SHT30;55104;47.356;19.448;2023-12-20T17:21:54;2.77;99.73
68274;SHT30;55104;47.356;19.448;2023-12-20T17:24:56;2.76;99.96
68274;SHT30;55104;47.356;19.448;2023-12-20T17:27:58;2.67;99.99
68274;SHT30;55104;47.356;19.448;2023-12-20T17:31:00;2.68;99.99
68274;SHT30;55104;47.356;19.448;2023-12-20T17:34:02;2.60;99.99
68274;SHT30;55104;47.356;19.448;2023-12-20T17:37:05;2.64;99.99
68274;SHT30;55104;47.356;19.448;2023-12-20T17:40:08;2.58;99.99
68274;SHT30;55104;47.356;19.448;2023-12-20T17:43:11;2.52;99.99
68274;SHT30;55104;47.356;19.448;2023-12-20T17:46:14;2.45;99.99
68274;SHT30;55104;47.356;19.448;2023-12-20T17:49:16;2.37;99.99
68274;SHT30;55104;47.356;19.448;2023-12-20T17:52:21;2.40;99.99
68274;SHT30;55104;47.356;19.448;2023-12-20T17:55:33;2.43;99.99
68274;SHT30;55104;47.356;19.448;2023-12-20T17:58:35;2.42;99.99
68274;SHT30;55104;47.356;19.448;2023-12-20T18:01:38;2.22;99.99
68274;SHT30;55104;47.356;19.448;2023-12-20T18:04:40;2.11;99.99
68274;SHT30;55104;47.356;19.448;2023-12-20T18:07:45;1.95;99.99
68274;SHT30;55104;47.356;19.448;2023-12-20T18:10:49;1.84;99.99
68274;SHT30;55104;47.356;19.448;2023-12-20T18:13:51;1.71;99.99
68274;SHT30;55104;47.356;19.448;2023-12-20T18:16:54;1.57;99.99
68274;SHT30;55104;47.356;19.448;2023-12-20T18:19:57;1.60;99.99
68274;SHT30;55104;47.356;19.448;2023-12-20T18:23:01;1.47;99.99
68274;SHT30;55104;47.356;19.448;2023-12-20T18:26:04;1.49;99.99
68274;SHT30;55104;47.356;19.448;2023-12-20T18:29:06;1.66;99.99
68274;SHT30;55104;47.356;19.448;2023-12-20T18:32:08;1.68;99.99
68274;SHT30;55104;47.356;19.448;2023-12-20T18:35:11;1.73;99.99
68274;SHT30;55104;47.356;19.448;2023-12-20T18:38:14;1.63;99.99
68274;SHT30;55104;47.356;19.448;2023-12-20T18:41:17;1.47;99.99
68274;SHT30;55104;47.356;19.448;2023-12-20T18:44:19;1.36;99.99
68274;SHT30;55104;47.356;19.448;2023-12-20T18:47:22;1.18;99.99
68274;SHT30;55104;47.356;19.448;2023-12-20T18:50:24;0.98;99.99
68274;SHT30;55104;47.356;19.448;2023-12-20T18:53:26;0.77;99.99
68274;SHT30;55104;47.356;19.448;2023-12-20T18:56:29;0.69;99.99
68274;SHT30;55104;47.356;19.448;2023-12-20T18:59:31;0.69;99.99
68274;SHT30;55104;47.356;19.448;2023-12-20T19:02:34;0.67;99.99
68274;SHT30;55104;47.356;19.448;2023-12-20T19:05:37;0.79;99.99